KFXE/FXE METAR and TAF weather

Enter ICAO airport designator
Station Type Date Time Source
KFXE METAR 2020/05/29 17:53 UTC NOAA

KFXE 291753Z 12011KT 10SM SCT025 SCT032 SCT039 31/23 A3003 RMK AO2 SLP172 T03110233 10317 20272 58003


Station Type Date Time Source
KFXE Decoded METAR 2020/05/29 17:53 UTC NOAA

FORT LAUDERDALE EXECUTIVE, FL, United States (KFXE) 26-12N 080-11W 6M
May 29, 2020 - 01:53 PM EDT / 2020.05.29 1753 UTC
Wind: from the ESE (120 degrees) at 13 MPH (11 KT):0
Visibility: 10 mile(s):0
Sky conditions: partly cloudy
Temperature: 88.0 F (31.1 C)
Heat index: 96.6 F (35.9 C):1
Dew Point: 73.9 F (23.3 C)
Relative Humidity: 63%
Pressure (altimeter): 30.03 in. Hg (1016 hPa)
Pressure tendency: 0.01 inches (0.3 hPa) lower than three hours ago
ob: KFXE 291753Z 12011KT 10SM SCT025 SCT032 SCT039 31/23 A3003 RMK AO2 SLP172 T03110233 10317 20272 58003
cycle: 18

Station Type Date Time Source
KFXE TAF 2020/05/29 18:24 UTC NOAA

TAF KFXE 291723Z 2918/3018 13013KT P6SM VCSH SCT025 BKN035
FM300000 11006KT P6SM FEW030 SCT050 BKN250
FM300600 VRB05KT P6SM FEW050 SCT250
FM301400 12013KT P6SM SCT040 SCT250

Example: see airport list